Time,TemperatureF,DewpointF,PressureIn,WindDirection,WindDirectionDegrees,WindSpeedMPH,WindSpeedGustMPH,Humidity,HourlyPrecipIn,Conditions,Clouds,dailyrainin,SolarRadiationWatts/m^2,SoftwareType,DateUTC
2013-03-02 00:02:00,50.0,36.0,-100.00,WNW,296,4.0,11.0,59,0.00,,,0.00,0.000000,,2013-03-02 05:02:00,
2013-03-02 00:12:00,50.0,36.0,-100.00,WNW,296,4.0,11.0,59,0.00,,,0.00,0.000000,,2013-03-02 05:12:00,
2013-03-02 00:32:00,50.0,35.0,-100.00,NW,306,5.0,9.0,57,0.00,,,0.00,0.000000,,2013-03-02 05:32:00,
2013-03-02 00:42:00,50.0,35.0,-100.00,NW,306,5.0,9.0,57,0.00,,,0.00,0.000000,,2013-03-02 05:42:00,
2013-03-02 00:52:00,50.0,35.0,-100.00,NW,306,5.0,9.0,57,0.00,,,0.00,0.000000,,2013-03-02 05:52:00,
2013-03-02 01:02:00,50.0,35.0,-100.00,NW,306,5.0,9.0,57,0.00,,,0.00,0.000000,,2013-03-02 06:02:00,
2013-03-02 01:11:00,50.0,35.0,-100.00,NW,306,5.0,9.0,57,0.00,,,0.00,0.000000,,2013-03-02 06:11:00,
2013-03-02 01:32:00,49.0,35.0,-100.00,WNW,289,4.0,10.0,58,0.00,,,0.00,0.000000,,2013-03-02 06:32:00,
2013-03-02 01:42:00,49.0,35.0,-100.00,WNW,289,4.0,10.0,58,0.00,,,0.00,0.000000,,2013-03-02 06:42:00,
2013-03-02 01:52:00,49.0,35.0,-100.00,WNW,289,4.0,10.0,58,0.00,,,0.00,0.000000,,2013-03-02 06:52:00,
2013-03-02 02:02:00,49.0,35.0,-100.00,WNW,289,4.0,10.0,58,0.00,,,0.00,0.000000,,2013-03-02 07:02:00,
2013-03-02 02:11:00,49.0,35.0,-100.00,WNW,289,4.0,10.0,58,0.00,,,0.00,0.000000,,2013-03-02 07:11:00,
2013-03-02 02:32:00,48.0,34.0,-100.00,NW,304,4.0,8.0,59,0.00,,,0.00,0.000000,,2013-03-02 07:32:00,
2013-03-02 02:42:00,48.0,34.0,-100.00,NW,304,4.0,8.0,59,0.00,,,0.00,0.000000,,2013-03-02 07:42:00,
2013-03-02 02:52:00,48.0,34.0,-100.00,NW,304,4.0,8.0,59,0.00,,,0.00,0.000000,,2013-03-02 07:52:00,
2013-03-02 03:01:00,48.0,34.0,-100.00,NW,304,4.0,8.0,59,0.00,,,0.00,0.000000,,2013-03-02 08:01:00,
2013-03-02 03:11:00,48.0,34.0,-100.00,NW,304,4.0,8.0,59,0.00,,,0.00,0.000000,,2013-03-02 08:11:00,
2013-03-02 03:43:00,47.0,33.0,-100.00,WNW,298,3.0,11.0,57,0.00,,,0.00,0.000000,,2013-03-02 08:43:00,
2013-03-02 03:52:00,47.0,33.0,-100.00,WNW,298,3.0,11.0,57,0.00,,,0.00,0.000000,,2013-03-02 08:52:00,
2013-03-02 04:02:00,47.0,33.0,-100.00,WNW,298,3.0,11.0,57,0.00,,,0.00,0.000000,,2013-03-02 09:02:00,
2013-03-02 04:11:00,47.0,33.0,-100.00,WNW,298,3.0,11.0,57,0.00,,,0.00,0.000000,,2013-03-02 09:11:00,
2013-03-02 04:15:00,45.0,32.0,-100.00,West,276,3.0,7.0,60,0.00,,,0.00,0.000000,,2013-03-02 09:15:00,
2013-03-02 04:32:00,45.0,32.0,-100.00,West,276,3.0,7.0,60,0.00,,,0.00,0.000000,,2013-03-02 09:32:00,
2013-03-02 04:42:00,45.0,32.0,-100.00,West,276,3.0,7.0,60,0.00,,,0.00,0.000000,,2013-03-02 09:42:00,
2013-03-02 04:52:00,45.0,32.0,-100.00,West,276,3.0,7.0,60,0.00,,,0.00,0.000000,,2013-03-02 09:52:00,
2013-03-02 05:01:00,45.0,32.0,-100.00,West,276,3.0,7.0,60,0.00,,,0.00,0.000000,,2013-03-02 10:01:00,
2013-03-02 05:43:00,42.0,32.0,-100.00,SW,236,2.0,5.0,67,0.00,,,0.00,0.000000,,2013-03-02 10:43:00,
2013-03-02 05:52:00,42.0,32.0,-100.00,SW,236,2.0,5.0,67,0.00,,,0.00,0.000000,,2013-03-02 10:52:00,
2013-03-02 06:01:00,42.0,32.0,-100.00,SW,236,2.0,5.0,67,0.00,,,0.00,0.000000,,2013-03-02 11:01:00,
2013-03-02 06:11:00,42.0,32.0,-100.00,SW,236,2.0,5.0,67,0.00,,,0.00,0.000000,,2013-03-02 11:11:00,
2013-03-02 06:32:00,39.0,32.0,-100.00,West,259,2.0,4.0,76,0.00,,,0.00,0.000000,,2013-03-02 11:32:00,
2013-03-02 06:42:00,39.0,32.0,-100.00,West,259,2.0,4.0,76,0.00,,,0.00,0.000000,,2013-03-02 11:42:00,
2013-03-02 06:52:00,39.0,32.0,-100.00,West,259,2.0,4.0,76,0.00,,,0.00,0.000000,,2013-03-02 11:52:00,
2013-03-02 07:02:00,39.0,32.0,-100.00,West,259,2.0,4.0,76,0.00,,,0.00,0.000000,,2013-03-02 12:02:00,
2013-03-02 07:11:00,39.0,32.0,-100.00,West,259,2.0,4.0,76,0.00,,,0.00,0.000000,,2013-03-02 12:11:00,
2013-03-02 07:33:00,42.0,32.0,-100.00,WSW,237,1.0,4.0,68,0.00,,,0.00,7.000000,,2013-03-02 12:33:00,
2013-03-02 07:43:00,42.0,32.0,-100.00,WSW,237,1.0,4.0,68,0.00,,,0.00,7.000000,,2013-03-02 12:43:00,
2013-03-02 07:53:00,42.0,32.0,-100.00,WSW,237,1.0,4.0,68,0.00,,,0.00,7.000000,,2013-03-02 12:53:00,
2013-03-02 08:02:00,42.0,32.0,-100.00,WSW,237,1.0,4.0,68,0.00,,,0.00,7.000000,,2013-03-02 13:02:00,
2013-03-02 08:11:00,42.0,32.0,-100.00,WSW,237,1.0,4.0,68,0.00,,,0.00,7.000000,,2013-03-02 13:11:00,
2013-03-02 08:42:00,45.0,33.0,-100.00,NNW,334,3.0,6.0,63,0.00,,,0.00,63.000000,,2013-03-02 13:42:00,
2013-03-02 08:53:00,45.0,33.0,-100.00,NNW,334,3.0,6.0,63,0.00,,,0.00,63.000000,,2013-03-02 13:53:00,
2013-03-02 09:01:00,45.0,33.0,-100.00,NNW,334,3.0,6.0,63,0.00,,,0.00,63.000000,,2013-03-02 14:01:00,
2013-03-02 09:11:00,45.0,33.0,-100.00,NNW,334,3.0,6.0,63,0.00,,,0.00,63.000000,,2013-03-02 14:11:00,
2013-03-02 09:32:00,49.0,34.0,-100.00,NNW,327,3.0,7.0,55,0.00,,,0.00,168.000000,,2013-03-02 14:32:00,
2013-03-02 09:42:00,49.0,34.0,-100.00,NNW,327,3.0,7.0,55,0.00,,,0.00,168.000000,,2013-03-02 14:42:00,
2013-03-02 09:52:00,49.0,34.0,-100.00,NNW,327,3.0,7.0,55,0.00,,,0.00,168.000000,,2013-03-02 14:52:00,
2013-03-02 10:02:00,49.0,34.0,-100.00,NNW,327,3.0,7.0,55,0.00,,,0.00,168.000000,,2013-03-02 15:02:00,
2013-03-02 10:11:00,49.0,34.0,-100.00,NNW,327,3.0,7.0,55,0.00,,,0.00,168.000000,,2013-03-02 15:11:00,
2013-03-02 10:32:00,53.0,31.0,-100.00,West,277,8.0,14.0,42,0.00,,,0.00,403.000000,,2013-03-02 15:32:00,
2013-03-02 10:42:00,53.0,31.0,-100.00,West,277,8.0,14.0,42,0.00,,,0.00,403.000000,,2013-03-02 15:42:00,
2013-03-02 10:52:00,53.0,31.0,-100.00,West,277,8.0,14.0,42,0.00,,,0.00,403.000000,,2013-03-02 15:52:00,
2013-03-02 11:02:00,53.0,31.0,-100.00,West,277,8.0,14.0,42,0.00,,,0.00,403.000000,,2013-03-02 16:02:00,
2013-03-02 11:11:00,53.0,31.0,-100.00,West,277,8.0,14.0,42,0.00,,,0.00,403.000000,,2013-03-02 16:11:00,
2013-03-02 11:32:00,56.0,27.0,-100.00,WNW,287,10.0,20.0,32,0.00,,,0.00,676.000000,,2013-03-02 16:32:00,
2013-03-02 11:42:00,56.0,27.0,-100.00,WNW,287,10.0,20.0,32,0.00,,,0.00,676.000000,,2013-03-02 16:42:00,
2013-03-02 11:52:00,56.0,27.0,-100.00,WNW,287,10.0,20.0,32,0.00,,,0.00,676.000000,,2013-03-02 16:52:00,
2013-03-02 12:01:00,56.0,27.0,-100.00,WNW,287,10.0,20.0,32,0.00,,,0.00,676.000000,,2013-03-02 17:01:00,
2013-03-02 12:12:00,56.0,27.0,-100.00,WNW,287,10.0,20.0,32,0.00,,,0.00,676.000000,,2013-03-02 17:12:00,
2013-03-02 12:42:00,58.0,27.0,-100.00,West,274,11.0,25.0,30,0.00,,,0.00,824.000000,,2013-03-02 17:42:00,
2013-03-02 12:52:00,58.0,27.0,-100.00,West,274,11.0,25.0,30,0.00,,,0.00,824.000000,,2013-03-02 17:52:00,
2013-03-02 13:02:00,58.0,27.0,-100.00,West,274,11.0,25.0,30,0.00,,,0.00,824.000000,,2013-03-02 18:02:00,
2013-03-02 13:11:00,58.0,27.0,-100.00,West,274,11.0,25.0,30,0.00,,,0.00,824.000000,,2013-03-02 18:11:00,
2013-03-02 13:32:00,59.0,22.0,-100.00,WNW,283,11.0,25.0,24,0.00,,,0.00,844.000000,,2013-03-02 18:32:00,
2013-03-02 13:42:00,59.0,22.0,-100.00,WNW,283,11.0,25.0,24,0.00,,,0.00,844.000000,,2013-03-02 18:42:00,
2013-03-02 13:52:00,59.0,22.0,-100.00,WNW,283,11.0,25.0,24,0.00,,,0.00,844.000000,,2013-03-02 18:52:00,
2013-03-02 14:02:00,59.0,22.0,-100.00,WNW,283,11.0,25.0,24,0.00,,,0.00,844.000000,,2013-03-02 19:02:00,
2013-03-02 14:12:00,59.0,22.0,-100.00,WNW,283,11.0,25.0,24,0.00,,,0.00,844.000000,,2013-03-02 19:12:00,
2013-03-02 14:43:00,59.0,18.0,-100.00,West,270,13.0,27.0,20,0.00,,,0.00,797.000000,,2013-03-02 19:43:00,
2013-03-02 14:52:00,59.0,18.0,-100.00,West,270,13.0,27.0,20,0.00,,,0.00,797.000000,,2013-03-02 19:52:00,
2013-03-02 15:02:00,59.0,18.0,-100.00,West,270,13.0,27.0,20,0.00,,,0.00,797.000000,,2013-03-02 20:02:00,
2013-03-02 15:11:00,59.0,18.0,-100.00,West,270,13.0,27.0,20,0.00,,,0.00,797.000000,,2013-03-02 20:11:00,
2013-03-02 15:42:00,59.0,21.0,-100.00,WNW,286,11.0,30.0,23,0.00,,,0.00,677.000000,,2013-03-02 20:42:00,
2013-03-02 15:53:00,59.0,21.0,-100.00,WNW,286,11.0,30.0,23,0.00,,,0.00,677.000000,,2013-03-02 20:53:00,
2013-03-02 16:02:00,59.0,21.0,-100.00,WNW,286,11.0,30.0,23,0.00,,,0.00,677.000000,,2013-03-02 21:02:00,
2013-03-02 16:12:00,59.0,21.0,-100.00,WNW,286,11.0,30.0,23,0.00,,,0.00,677.000000,,2013-03-02 21:12:00,
2013-03-02 16:42:00,58.0,24.0,-100.00,West,277,10.0,23.0,27,0.00,,,0.00,502.000000,,2013-03-02 21:42:00,
2013-03-02 16:52:00,58.0,24.0,-100.00,West,277,10.0,23.0,27,0.00,,,0.00,502.000000,,2013-03-02 21:52:00,
2013-03-02 17:02:00,58.0,24.0,-100.00,West,277,10.0,23.0,27,0.00,,,0.00,502.000000,,2013-03-02 22:02:00,
2013-03-02 17:11:00,58.0,24.0,-100.00,West,277,10.0,23.0,27,0.00,,,0.00,502.000000,,2013-03-02 22:11:00,
2013-03-02 17:42:00,54.0,26.0,-100.00,WSW,254,11.0,24.0,34,0.00,,,0.00,293.000000,,2013-03-02 22:42:00,
2013-03-02 17:52:00,54.0,26.0,-100.00,WSW,254,11.0,24.0,34,0.00,,,0.00,293.000000,,2013-03-02 22:52:00,
2013-03-02 18:02:00,54.0,26.0,-100.00,WSW,254,11.0,24.0,34,0.00,,,0.00,293.000000,,2013-03-02 23:02:00,
2013-03-02 18:11:00,54.0,26.0,-100.00,WSW,254,11.0,24.0,34,0.00,,,0.00,293.000000,,2013-03-02 23:11:00,
2013-03-02 18:32:00,50.0,27.0,-100.00,West,277,7.0,24.0,40,0.00,,,0.00,81.000000,,2013-03-02 23:32:00,
2013-03-02 18:42:00,50.0,27.0,-100.00,West,277,7.0,24.0,40,0.00,,,0.00,81.000000,,2013-03-02 23:42:00,
2013-03-02 18:52:00,50.0,27.0,-100.00,West,277,7.0,24.0,40,0.00,,,0.00,81.000000,,2013-03-02 23:52:00,
2013-03-02 19:02:00,50.0,27.0,-100.00,West,277,7.0,24.0,40,0.00,,,0.00,81.000000,,2013-03-03 00:02:00,
2013-03-02 19:11:00,50.0,27.0,-100.00,West,277,7.0,24.0,40,0.00,,,0.00,81.000000,,2013-03-03 00:11:00,
2013-03-02 19:42:00,48.0,27.0,-100.00,West,279,4.0,15.0,44,0.00,,,0.00,3.000000,,2013-03-03 00:42:00,
2013-03-02 19:52:00,48.0,27.0,-100.00,West,279,4.0,15.0,44,0.00,,,0.00,3.000000,,2013-03-03 00:52:00,
2013-03-02 20:01:00,48.0,27.0,-100.00,West,279,4.0,15.0,44,0.00,,,0.00,3.000000,,2013-03-03 01:01:00,
2013-03-02 20:11:00,48.0,27.0,-100.00,West,279,4.0,15.0,44,0.00,,,0.00,3.000000,,2013-03-03 01:11:00,
2013-03-02 20:42:00,46.0,28.0,-100.00,WSW,250,3.0,9.0,49,0.00,,,0.00,0.000000,,2013-03-03 01:42:00,
2013-03-02 20:52:00,46.0,28.0,-100.00,WSW,250,3.0,9.0,49,0.00,,,0.00,0.000000,,2013-03-03 01:52:00,
2013-03-02 21:01:00,46.0,28.0,-100.00,WSW,250,3.0,9.0,49,0.00,,,0.00,0.000000,,2013-03-03 02:01:00,
2013-03-02 21:11:00,46.0,28.0,-100.00,WSW,250,3.0,9.0,49,0.00,,,0.00,0.000000,,2013-03-03 02:11:00,
2013-03-02 21:32:00,42.0,27.0,-100.00,SW,229,2.0,4.0,56,0.00,,,0.00,0.000000,,2013-03-03 02:32:00,
2013-03-02 21:42:00,42.0,27.0,-100.00,SW,229,2.0,4.0,56,0.00,,,0.00,0.000000,,2013-03-03 02:42:00,
2013-03-02 21:52:00,42.0,27.0,-100.00,SW,229,2.0,4.0,56,0.00,,,0.00,0.000000,,2013-03-03 02:52:00,
2013-03-02 22:02:00,42.0,27.0,-100.00,SW,229,2.0,4.0,56,0.00,,,0.00,0.000000,,2013-03-03 03:02:00,
2013-03-02 22:11:00,42.0,27.0,-100.00,SW,229,2.0,4.0,56,0.00,,,0.00,0.000000,,2013-03-03 03:11:00,
2013-03-02 22:32:00,43.0,28.0,-100.00,North,358,6.0,10.0,55,0.00,,,0.00,0.000000,,2013-03-03 03:32:00,
2013-03-02 22:42:00,43.0,28.0,-100.00,North,358,6.0,10.0,55,0.00,,,0.00,0.000000,,2013-03-03 03:42:00,
2013-03-02 22:52:00,43.0,28.0,-100.00,North,358,6.0,10.0,55,0.00,,,0.00,0.000000,,2013-03-03 03:52:00,
2013-03-02 23:01:00,43.0,28.0,-100.00,North,358,6.0,10.0,55,0.00,,,0.00,0.000000,,2013-03-03 04:01:00,
2013-03-02 23:11:00,43.0,28.0,-100.00,North,358,6.0,10.0,55,0.00,,,0.00,0.000000,,2013-03-03 04:11:00,
2013-03-02 23:32:00,42.0,26.0,-100.00,NNE,13,6.0,12.0,53,0.00,,,0.00,0.000000,,2013-03-03 04:32:00,
2013-03-02 23:42:00,42.0,26.0,-100.00,NNE,13,6.0,12.0,53,0.00,,,0.00,0.000000,,2013-03-03 04:42:00,
2013-03-02 23:52:00,42.0,26.0,-100.00,NNE,13,6.0,12.0,53,0.00,,,0.00,0.000000,,2013-03-03 04:52:00,